sensor_id;sensor_type;location;lat;lon;timestamp;P1;durP1;ratioP1;P2;durP2;ratioP2
31836;SDS011;18401;49.344;6.240;2023-02-24T00:00:04;45.05;;;16.25;;
31836;SDS011;18401;49.344;6.240;2023-02-24T00:02:56;43.38;;;14.55;;
31836;SDS011;18401;49.344;6.240;2023-02-24T00:05:23;40.42;;;14.25;;
31836;SDS011;18401;49.344;6.240;2023-02-24T00:07:49;37.33;;;13.35;;
31836;SDS011;18401;49.344;6.240;2023-02-24T00:10:15;40.20;;;14.93;;
31836;SDS011;18401;49.344;6.240;2023-02-24T00:12:45;39.28;;;15.60;;
31836;SDS011;18401;49.344;6.240;2023-02-24T00:15:12;41.30;;;16.15;;
31836;SDS011;18401;49.344;6.240;2023-02-24T00:17:39;43.05;;;16.30;;
31836;SDS011;18401;49.344;6.240;2023-02-24T00:20:05;45.70;;;15.80;;
31836;SDS011;18401;49.344;6.240;2023-02-24T00:22:36;48.40;;;15.25;;
31836;SDS011;18401;49.344;6.240;2023-02-24T00:25:02;46.60;;;16.08;;
31836;SDS011;18401;49.344;6.240;2023-02-24T00:27:28;41.75;;;15.68;;
31836;SDS011;18401;49.344;6.240;2023-02-24T00:29:54;47.58;;;16.20;;
31836;SDS011;18401;49.344;6.240;2023-02-24T00:32:20;46.80;;;14.85;;
31836;SDS011;18401;49.344;6.240;2023-02-24T00:34:46;42.83;;;14.98;;
31836;SDS011;18401;49.344;6.240;2023-02-24T00:37:12;41.13;;;14.63;;
31836;SDS011;18401;49.344;6.240;2023-02-24T00:39:39;40.63;;;15.85;;
31836;SDS011;18401;49.344;6.240;2023-02-24T00:42:05;48.03;;;16.40;;
31836;SDS011;18401;49.344;6.240;2023-02-24T00:44:38;45.20;;;15.57;;
31836;SDS011;18401;49.344;6.240;2023-02-24T00:47:08;44.05;;;15.63;;
31836;SDS011;18401;49.344;6.240;2023-02-24T00:49:36;47.88;;;15.95;;
31836;SDS011;18401;49.344;6.240;2023-02-24T00:52:06;46.05;;;15.07;;
31836;SDS011;18401;49.344;6.240;2023-02-24T00:54:40;41.45;;;15.35;;
31836;SDS011;18401;49.344;6.240;2023-02-24T00:57:06;45.63;;;15.00;;
31836;SDS011;18401;49.344;6.240;2023-02-24T00:59:32;46.92;;;15.70;;
31836;SDS011;18401;49.344;6.240;2023-02-24T01:01:58;44.90;;;15.63;;
31836;SDS011;18401;49.344;6.240;2023-02-24T01:04:24;38.40;;;13.48;;
31836;SDS011;18401;49.344;6.240;2023-02-24T01:06:52;40.83;;;13.68;;
31836;SDS011;18401;49.344;6.240;2023-02-24T01:09:24;37.58;;;14.27;;
31836;SDS011;18401;49.344;6.240;2023-02-24T01:11:52;40.60;;;14.18;;
31836;SDS011;18401;49.344;6.240;2023-02-24T01:14:36;43.47;;;14.77;;
31836;SDS011;18401;49.344;6.240;2023-02-24T01:17:04;49.70;;;15.90;;
31836;SDS011;18401;49.344;6.240;2023-02-24T01:19:30;48.75;;;15.63;;
31836;SDS011;18401;49.344;6.240;2023-02-24T01:21:57;46.63;;;14.65;;
31836;SDS011;18401;49.344;6.240;2023-02-24T01:24:33;39.10;;;14.65;;
31836;SDS011;18401;49.344;6.240;2023-02-24T01:27:00;41.47;;;14.23;;
31836;SDS011;18401;49.344;6.240;2023-02-24T01:29:26;31.90;;;13.05;;
31836;SDS011;18401;49.344;6.240;2023-02-24T01:31:52;44.75;;;15.27;;
31836;SDS011;18401;49.344;6.240;2023-02-24T01:34:21;40.08;;;13.98;;
31836;SDS011;18401;49.344;6.240;2023-02-24T01:36:51;44.42;;;14.50;;
31836;SDS011;18401;49.344;6.240;2023-02-24T01:39:17;43.63;;;16.23;;
31836;SDS011;18401;49.344;6.240;2023-02-24T01:41:43;49.50;;;15.48;;
31836;SDS011;18401;49.344;6.240;2023-02-24T01:46:40;50.83;;;16.30;;
31836;SDS011;18401;49.344;6.240;2023-02-24T01:49:17;45.78;;;15.88;;
31836;SDS011;18401;49.344;6.240;2023-02-24T01:52:06;52.35;;;17.40;;
31836;SDS011;18401;49.344;6.240;2023-02-24T01:54:39;48.00;;;15.32;;
31836;SDS011;18401;49.344;6.240;2023-02-24T01:57:09;42.67;;;14.35;;
31836;SDS011;18401;49.344;6.240;2023-02-24T01:59:40;50.30;;;15.00;;
31836;SDS011;18401;49.344;6.240;2023-02-24T02:02:09;46.97;;;15.07;;
31836;SDS011;18401;49.344;6.240;2023-02-24T02:04:37;42.75;;;14.48;;
31836;SDS011;18401;49.344;6.240;2023-02-24T02:07:14;40.10;;;12.77;;
31836;SDS011;18401;49.344;6.240;2023-02-24T02:09:42;40.35;;;12.90;;
31836;SDS011;18401;49.344;6.240;2023-02-24T02:12:09;33.85;;;12.15;;
31836;SDS011;18401;49.344;6.240;2023-02-24T02:14:36;41.28;;;14.20;;
31836;SDS011;18401;49.344;6.240;2023-02-24T02:17:11;35.85;;;13.38;;
31836;SDS011;18401;49.344;6.240;2023-02-24T02:19:54;37.10;;;13.40;;
31836;SDS011;18401;49.344;6.240;2023-02-24T02:28:35;44.80;;;13.20;;
31836;SDS011;18401;49.344;6.240;2023-02-24T02:33:53;46.35;;;13.95;;
31836;SDS011;18401;49.344;6.240;2023-02-24T02:36:36;38.55;;;13.38;;
31836;SDS011;18401;49.344;6.240;2023-02-24T02:41:53;50.60;;;15.60;;
31836;SDS011;18401;49.344;6.240;2023-02-24T02:52:58;47.05;;;13.30;;
31836;SDS011;18401;49.344;6.240;2023-02-24T02:58:18;39.42;;;12.32;;
31836;SDS011;18401;49.344;6.240;2023-02-24T03:00:51;39.90;;;11.70;;
31836;SDS011;18401;49.344;6.240;2023-02-24T03:03:39;35.28;;;12.10;;
31836;SDS011;18401;49.344;6.240;2023-02-24T03:06:25;38.55;;;13.27;;
31836;SDS011;18401;49.344;6.240;2023-02-24T03:11:26;48.05;;;13.20;;
31836;SDS011;18401;49.344;6.240;2023-02-24T03:13:53;41.30;;;13.25;;
31836;SDS011;18401;49.344;6.240;2023-02-24T03:16:22;51.50;;;15.45;;
31836;SDS011;18401;49.344;6.240;2023-02-24T03:18:56;52.22;;;14.98;;
31836;SDS011;18401;49.344;6.240;2023-02-24T03:21:37;57.17;;;15.48;;
31836;SDS011;18401;49.344;6.240;2023-02-24T03:24:09;63.97;;;18.67;;
31836;SDS011;18401;49.344;6.240;2023-02-24T03:26:42;59.50;;;18.45;;
31836;SDS011;18401;49.344;6.240;2023-02-24T03:29:29;56.10;;;17.58;;
31836;SDS011;18401;49.344;6.240;2023-02-24T03:32:18;61.78;;;19.30;;
31836;SDS011;18401;49.344;6.240;2023-02-24T03:35:13;43.88;;;13.13;;
31836;SDS011;18401;49.344;6.240;2023-02-24T03:37:43;39.28;;;14.52;;
31836;SDS011;18401;49.344;6.240;2023-02-24T03:40:11;37.50;;;13.70;;
31836;SDS011;18401;49.344;6.240;2023-02-24T03:42:42;47.28;;;14.90;;
31836;SDS011;18401;49.344;6.240;2023-02-24T03:45:11;50.83;;;14.52;;
31836;SDS011;18401;49.344;6.240;2023-02-24T03:47:37;42.47;;;14.63;;
31836;SDS011;18401;49.344;6.240;2023-02-24T03:53:06;48.90;;;14.20;;
31836;SDS011;18401;49.344;6.240;2023-02-24T03:58:35;37.75;;;13.07;;
31836;SDS011;18401;49.344;6.240;2023-02-24T04:12:03;54.60;;;14.35;;
31836;SDS011;18401;49.344;6.240;2023-02-24T04:14:49;49.65;;;14.77;;
31836;SDS011;18401;49.344;6.240;2023-02-24T04:17:40;48.67;;;14.70;;
31836;SDS011;18401;49.344;6.240;2023-02-24T04:20:13;49.17;;;15.55;;
31836;SDS011;18401;49.344;6.240;2023-02-24T04:22:42;55.47;;;16.40;;
31836;SDS011;18401;49.344;6.240;2023-02-24T04:25:14;54.03;;;15.13;;
31836;SDS011;18401;49.344;6.240;2023-02-24T04:27:43;47.60;;;16.08;;
31836;SDS011;18401;49.344;6.240;2023-02-24T04:30:10;46.33;;;13.90;;
31836;SDS011;18401;49.344;6.240;2023-02-24T04:32:36;66.80;;;17.13;;
31836;SDS011;18401;49.344;6.240;2023-02-24T04:35:07;41.33;;;14.20;;
31836;SDS011;18401;49.344;6.240;2023-02-24T04:37:36;44.08;;;16.48;;
31836;SDS011;18401;49.344;6.240;2023-02-24T04:40:04;43.17;;;14.30;;
31836;SDS011;18401;49.344;6.240;2023-02-24T04:42:39;37.60;;;13.52;;
31836;SDS011;18401;49.344;6.240;2023-02-24T04:45:31;39.42;;;14.05;;
31836;SDS011;18401;49.344;6.240;2023-02-24T04:47:57;50.47;;;14.82;;
31836;SDS011;18401;49.344;6.240;2023-02-24T04:50:31;44.13;;;14.35;;
31836;SDS011;18401;49.344;6.240;2023-02-24T04:53:02;46.08;;;14.10;;
31836;SDS011;18401;49.344;6.240;2023-02-24T04:55:37;48.75;;;15.05;;
31836;SDS011;18401;49.344;6.240;2023-02-24T04:58:05;47.97;;;14.60;;
31836;SDS011;18401;49.344;6.240;2023-02-24T05:00:35;45.08;;;12.90;;
31836;SDS011;18401;49.344;6.240;2023-02-24T05:03:04;36.85;;;11.63;;
31836;SDS011;18401;49.344;6.240;2023-02-24T05:05:31;36.55;;;11.75;;
31836;SDS011;18401;49.344;6.240;2023-02-24T05:08:07;40.50;;;12.68;;
31836;SDS011;18401;49.344;6.240;2023-02-24T05:10:35;50.65;;;13.93;;
31836;SDS011;18401;49.344;6.240;2023-02-24T05:13:03;41.65;;;13.38;;
31836;SDS011;18401;49.344;6.240;2023-02-24T05:15:31;38.78;;;12.30;;
31836;SDS011;18401;49.344;6.240;2023-02-24T05:18:00;43.05;;;12.07;;
31836;SDS011;18401;49.344;6.240;2023-02-24T05:20:34;50.92;;;13.98;;
31836;SDS011;18401;49.344;6.240;2023-02-24T05:23:26;49.28;;;14.93;;
31836;SDS011;18401;49.344;6.240;2023-02-24T05:26:04;49.35;;;14.20;;
31836;SDS011;18401;49.344;6.240;2023-02-24T05:28:39;43.35;;;11.95;;
31836;SDS011;18401;49.344;6.240;2023-02-24T05:31:09;40.58;;;13.30;;
31836;SDS011;18401;49.344;6.240;2023-02-24T05:33:42;45.45;;;13.80;;
31836;SDS011;18401;49.344;6.240;2023-02-24T05:36:10;39.70;;;12.63;;
31836;SDS011;18401;49.344;6.240;2023-02-24T05:38:41;45.17;;;13.48;;
31836;SDS011;18401;49.344;6.240;2023-02-24T05:41:20;44.22;;;12.90;;
31836;SDS011;18401;49.344;6.240;2023-02-24T05:46:17;42.38;;;13.68;;
31836;SDS011;18401;49.344;6.240;2023-02-24T05:48:43;41.75;;;13.70;;
31836;SDS011;18401;49.344;6.240;2023-02-24T05:51:11;50.65;;;15.18;;
31836;SDS011;18401;49.344;6.240;2023-02-24T05:53:37;35.70;;;11.07;;
31836;SDS011;18401;49.344;6.240;2023-02-24T05:56:07;38.72;;;11.02;;
31836;SDS011;18401;49.344;6.240;2023-02-24T05:58:33;37.53;;;11.88;;
31836;SDS011;18401;49.344;6.240;2023-02-24T06:01:08;47.78;;;13.38;;
31836;SDS011;18401;49.344;6.240;2023-02-24T06:03:40;39.90;;;12.77;;
31836;SDS011;18401;49.344;6.240;2023-02-24T06:06:15;35.45;;;11.45;;
31836;SDS011;18401;49.344;6.240;2023-02-24T06:08:42;48.20;;;13.10;;
31836;SDS011;18401;49.344;6.240;2023-02-24T06:11:14;52.65;;;14.15;;
31836;SDS011;18401;49.344;6.240;2023-02-24T06:13:42;60.28;;;15.38;;
31836;SDS011;18401;49.344;6.240;2023-02-24T06:16:12;56.05;;;16.65;;
31836;SDS011;18401;49.344;6.240;2023-02-24T06:18:39;43.40;;;13.35;;
31836;SDS011;18401;49.344;6.240;2023-02-24T06:21:11;57.78;;;15.70;;
31836;SDS011;18401;49.344;6.240;2023-02-24T06:23:37;49.05;;;15.25;;
31836;SDS011;18401;49.344;6.240;2023-02-24T06:26:04;50.70;;;15.57;;
31836;SDS011;18401;49.344;6.240;2023-02-24T06:28:36;65.60;;;17.48;;
31836;SDS011;18401;49.344;6.240;2023-02-24T06:31:07;66.53;;;19.92;;
31836;SDS011;18401;49.344;6.240;2023-02-24T06:33:35;53.00;;;15.60;;
31836;SDS011;18401;49.344;6.240;2023-02-24T06:36:01;39.63;;;13.60;;
31836;SDS011;18401;49.344;6.240;2023-02-24T06:38:29;57.85;;;15.95;;
31836;SDS011;18401;49.344;6.240;2023-02-24T06:40:56;54.22;;;15.15;;
31836;SDS011;18401;49.344;6.240;2023-02-24T06:43:22;51.72;;;14.75;;
31836;SDS011;18401;49.344;6.240;2023-02-24T06:45:48;49.53;;;15.90;;
31836;SDS011;18401;49.344;6.240;2023-02-24T06:48:14;50.20;;;15.05;;
31836;SDS011;18401;49.344;6.240;2023-02-24T06:50:40;52.47;;;15.77;;
31836;SDS011;18401;49.344;6.240;2023-02-24T06:53:05;52.70;;;16.25;;
31836;SDS011;18401;49.344;6.240;2023-02-24T06:55:40;57.90;;;15.68;;
31836;SDS011;18401;49.344;6.240;2023-02-24T06:58:16;56.75;;;15.60;;
31836;SDS011;18401;49.344;6.240;2023-02-24T07:00:43;59.28;;;14.93;;
31836;SDS011;18401;49.344;6.240;2023-02-24T07:03:20;48.42;;;14.55;;
31836;SDS011;18401;49.344;6.240;2023-02-24T07:05:52;49.15;;;15.10;;
31836;SDS011;18401;49.344;6.240;2023-02-24T07:08:24;47.28;;;13.52;;
31836;SDS011;18401;49.344;6.240;2023-02-24T07:10:55;47.38;;;15.13;;
31836;SDS011;18401;49.344;6.240;2023-02-24T07:13:26;44.22;;;13.77;;
31836;SDS011;18401;49.344;6.240;2023-02-24T07:15:55;45.63;;;14.43;;
31836;SDS011;18401;49.344;6.240;2023-02-24T07:18:20;48.88;;;14.55;;
31836;SDS011;18401;49.344;6.240;2023-02-24T07:20:50;53.45;;;16.63;;
31836;SDS011;18401;49.344;6.240;2023-02-24T07:23:16;57.20;;;16.40;;
31836;SDS011;18401;49.344;6.240;2023-02-24T07:25:42;51.13;;;17.05;;
31836;SDS011;18401;49.344;6.240;2023-02-24T07:28:10;47.65;;;14.75;;
31836;SDS011;18401;49.344;6.240;2023-02-24T07:30:43;47.08;;;15.60;;
31836;SDS011;18401;49.344;6.240;2023-02-24T07:33:09;53.42;;;16.23;;
31836;SDS011;18401;49.344;6.240;2023-02-24T07:35:35;52.58;;;16.90;;
31836;SDS011;18401;49.344;6.240;2023-02-24T07:38:04;46.15;;;16.05;;
31836;SDS011;18401;49.344;6.240;2023-02-24T07:40:30;56.25;;;17.77;;
31836;SDS011;18401;49.344;6.240;2023-02-24T07:42:58;58.75;;;17.00;;
31836;SDS011;18401;49.344;6.240;2023-02-24T07:45:24;44.97;;;15.35;;
31836;SDS011;18401;49.344;6.240;2023-02-24T07:47:50;51.30;;;18.15;;
31836;SDS011;18401;49.344;6.240;2023-02-24T07:50:16;51.75;;;17.20;;
31836;SDS011;18401;49.344;6.240;2023-02-24T07:52:45;51.35;;;17.40;;
31836;SDS011;18401;49.344;6.240;2023-02-24T07:55:12;52.45;;;17.52;;
31836;SDS011;18401;49.344;6.240;2023-02-24T07:57:39;45.38;;;16.38;;
31836;SDS011;18401;49.344;6.240;2023-02-24T08:00:10;43.85;;;14.23;;
31836;SDS011;18401;49.344;6.240;2023-02-24T08:02:47;44.03;;;14.60;;
31836;SDS011;18401;49.344;6.240;2023-02-24T08:05:16;49.47;;;15.38;;
31836;SDS011;18401;49.344;6.240;2023-02-24T08:07:45;47.40;;;15.63;;
31836;SDS011;18401;49.344;6.240;2023-02-24T08:10:20;44.15;;;14.77;;
31836;SDS011;18401;49.344;6.240;2023-02-24T08:15:19;45.80;;;16.88;;
31836;SDS011;18401;49.344;6.240;2023-02-24T08:17:50;40.47;;;13.68;;
31836;SDS011;18401;49.344;6.240;2023-02-24T08:20:23;52.25;;;15.48;;
31836;SDS011;18401;49.344;6.240;2023-02-24T08:22:50;48.83;;;15.77;;
31836;SDS011;18401;49.344;6.240;2023-02-24T08:25:18;49.08;;;14.85;;
31836;SDS011;18401;49.344;6.240;2023-02-24T08:27:49;45.28;;;15.27;;
31836;SDS011;18401;49.344;6.240;2023-02-24T08:30:20;47.10;;;16.20;;
31836;SDS011;18401;49.344;6.240;2023-02-24T08:32:53;47.88;;;16.23;;
31836;SDS011;18401;49.344;6.240;2023-02-24T08:37:56;46.17;;;14.85;;
31836;SDS011;18401;49.344;6.240;2023-02-24T08:40:27;46.80;;;16.58;;
31836;SDS011;18401;49.344;6.240;2023-02-24T08:43:03;40.90;;;14.73;;
31836;SDS011;18401;49.344;6.240;2023-02-24T08:45:41;45.65;;;16.10;;
31836;SDS011;18401;49.344;6.240;2023-02-24T08:48:09;46.35;;;15.63;;
31836;SDS011;18401;49.344;6.240;2023-02-24T08:53:51;40.67;;;14.07;;
31836;SDS011;18401;49.344;6.240;2023-02-24T08:56:19;47.85;;;16.00;;
31836;SDS011;18401;49.344;6.240;2023-02-24T08:59:08;48.92;;;15.30;;
31836;SDS011;18401;49.344;6.240;2023-02-24T09:01:53;49.97;;;16.33;;
31836;SDS011;18401;49.344;6.240;2023-02-24T09:04:40;53.58;;;16.58;;
31836;SDS011;18401;49.344;6.240;2023-02-24T09:07:11;56.25;;;20.58;;
31836;SDS011;18401;49.344;6.240;2023-02-24T09:09:39;52.38;;;18.67;;
31836;SDS011;18401;49.344;6.240;2023-02-24T09:12:06;50.00;;;19.35;;
31836;SDS011;18401;49.344;6.240;2023-02-24T09:14:33;48.35;;;17.35;;
31836;SDS011;18401;49.344;6.240;2023-02-24T09:17:03;46.13;;;16.02;;
31836;SDS011;18401;49.344;6.240;2023-02-24T09:19:42;41.15;;;15.45;;
31836;SDS011;18401;49.344;6.240;2023-02-24T09:25:13;48.28;;;16.73;;
31836;SDS011;18401;49.344;6.240;2023-02-24T09:27:42;48.53;;;16.23;;
31836;SDS011;18401;49.344;6.240;2023-02-24T09:30:16;43.45;;;16.55;;
31836;SDS011;18401;49.344;6.240;2023-02-24T09:38:37;41.08;;;15.35;;
31836;SDS011;18401;49.344;6.240;2023-02-24T09:44:37;42.97;;;14.88;;
31836;SDS011;18401;49.344;6.240;2023-02-24T09:52:48;31.85;;;12.93;;
31836;SDS011;18401;49.344;6.240;2023-02-24T09:55:33;42.47;;;14.77;;
31836;SDS011;18401;49.344;6.240;2023-02-24T09:58:21;37.67;;;14.88;;
31836;SDS011;18401;49.344;6.240;2023-02-24T10:01:08;38.42;;;13.93;;
31836;SDS011;18401;49.344;6.240;2023-02-24T10:06:39;34.10;;;14.35;;
31836;SDS011;18401;49.344;6.240;2023-02-24T10:11:46;37.15;;;14.68;;
31836;SDS011;18401;49.344;6.240;2023-02-24T10:14:22;39.35;;;13.95;;
31836;SDS011;18401;49.344;6.240;2023-02-24T10:17:38;39.63;;;13.63;;
31836;SDS011;18401;49.344;6.240;2023-02-24T10:20:46;38.35;;;14.13;;
31836;SDS011;18401;49.344;6.240;2023-02-24T10:25:44;32.60;;;13.40;;
31836;SDS011;18401;49.344;6.240;2023-02-24T10:33:35;25.48;;;10.63;;
31836;SDS011;18401;49.344;6.240;2023-02-24T10:36:07;25.85;;;9.18;;
31836;SDS011;18401;49.344;6.240;2023-02-24T10:38:42;21.35;;;9.23;;
31836;SDS011;18401;49.344;6.240;2023-02-24T10:41:14;22.38;;;8.80;;
31836;SDS011;18401;49.344;6.240;2023-02-24T10:43:51;24.58;;;9.80;;
31836;SDS011;18401;49.344;6.240;2023-02-24T10:46:24;25.30;;;10.55;;
31836;SDS011;18401;49.344;6.240;2023-02-24T10:48:55;24.52;;;10.68;;
31836;SDS011;18401;49.344;6.240;2023-02-24T10:51:27;26.70;;;10.63;;
31836;SDS011;18401;49.344;6.240;2023-02-24T10:54:06;27.17;;;10.75;;
31836;SDS011;18401;49.344;6.240;2023-02-24T10:57:29;23.67;;;10.15;;
31836;SDS011;18401;49.344;6.240;2023-02-24T11:00:04;26.77;;;8.90;;
31836;SDS011;18401;49.344;6.240;2023-02-24T11:02:46;26.17;;;11.18;;
31836;SDS011;18401;49.344;6.240;2023-02-24T11:05:25;22.95;;;10.35;;
31836;SDS011;18401;49.344;6.240;2023-02-24T11:08:06;27.23;;;11.10;;
31836;SDS011;18401;49.344;6.240;2023-02-24T11:10:50;25.75;;;10.70;;
31836;SDS011;18401;49.344;6.240;2023-02-24T11:13:30;27.30;;;11.13;;
31836;SDS011;18401;49.344;6.240;2023-02-24T11:16:15;28.38;;;10.70;;
31836;SDS011;18401;49.344;6.240;2023-02-24T11:19:00;25.10;;;9.02;;
31836;SDS011;18401;49.344;6.240;2023-02-24T11:21:26;18.33;;;8.25;;
31836;SDS011;18401;49.344;6.240;2023-02-24T11:23:53;25.73;;;10.10;;
31836;SDS011;18401;49.344;6.240;2023-02-24T11:26:36;24.63;;;9.02;;
31836;SDS011;18401;49.344;6.240;2023-02-24T11:40:29;14.38;;;6.10;;
31836;SDS011;18401;49.344;6.240;2023-02-24T11:48:26;17.63;;;6.28;;
31836;SDS011;18401;49.344;6.240;2023-02-24T11:51:03;11.32;;;6.70;;
31836;SDS011;18401;49.344;6.240;2023-02-24T11:53:54;12.90;;;5.78;;
31836;SDS011;18401;49.344;6.240;2023-02-24T11:56:28;13.65;;;5.78;;
31836;SDS011;18401;49.344;6.240;2023-02-24T12:04:39;13.13;;;5.15;;
31836;SDS011;18401;49.344;6.240;2023-02-24T12:07:34;10.45;;;5.25;;
31836;SDS011;18401;49.344;6.240;2023-02-24T12:12:43;13.95;;;5.55;;
31836;SDS011;18401;49.344;6.240;2023-02-24T12:15:31;11.35;;;4.75;;
31836;SDS011;18401;49.344;6.240;2023-02-24T12:18:05;12.80;;;5.30;;
31836;SDS011;18401;49.344;6.240;2023-02-24T12:23:29;15.05;;;7.22;;
31836;SDS011;18401;49.344;6.240;2023-02-24T12:37:21;13.18;;;5.82;;
31836;SDS011;18401;49.344;6.240;2023-02-24T12:40:01;11.60;;;5.35;;
31836;SDS011;18401;49.344;6.240;2023-02-24T12:51:06;13.18;;;5.75;;
31836;SDS011;18401;49.344;6.240;2023-02-24T12:53:43;12.02;;;5.32;;
31836;SDS011;18401;49.344;6.240;2023-02-24T12:58:58;12.73;;;5.32;;
31836;SDS011;18401;49.344;6.240;2023-02-24T13:13:03;13.10;;;5.47;;
31836;SDS011;18401;49.344;6.240;2023-02-24T13:15:53;12.00;;;5.53;;
31836;SDS011;18401;49.344;6.240;2023-02-24T13:18:22;11.82;;;5.72;;
31836;SDS011;18401;49.344;6.240;2023-02-24T13:23:33;15.30;;;5.70;;
31836;SDS011;18401;49.344;6.240;2023-02-24T14:41:00;17.27;;;7.70;;
31836;SDS011;18401;49.344;6.240;2023-02-24T14:43:28;17.13;;;7.32;;
31836;SDS011;18401;49.344;6.240;2023-02-24T14:45:54;18.38;;;6.90;;
31836;SDS011;18401;49.344;6.240;2023-02-24T14:48:28;13.55;;;6.90;;
31836;SDS011;18401;49.344;6.240;2023-02-24T14:50:56;15.02;;;7.30;;
31836;SDS011;18401;49.344;6.240;2023-02-24T14:53:26;16.60;;;7.07;;
31836;SDS011;18401;49.344;6.240;2023-02-24T14:55:55;12.63;;;5.95;;
31836;SDS011;18401;49.344;6.240;2023-02-24T15:03:42;16.15;;;7.40;;
31836;SDS011;18401;49.344;6.240;2023-02-24T15:06:15;13.63;;;6.72;;
31836;SDS011;18401;49.344;6.240;2023-02-24T15:08:47;14.23;;;7.25;;
31836;SDS011;18401;49.344;6.240;2023-02-24T15:13:52;16.00;;;7.38;;
31836;SDS011;18401;49.344;6.240;2023-02-24T15:16:24;10.73;;;5.55;;
31836;SDS011;18401;49.344;6.240;2023-02-24T15:18:54;12.25;;;6.78;;
31836;SDS011;18401;49.344;6.240;2023-02-24T15:21:26;11.52;;;5.70;;
31836;SDS011;18401;49.344;6.240;2023-02-24T15:23:59;13.68;;;6.28;;
31836;SDS011;18401;49.344;6.240;2023-02-24T15:26:31;13.10;;;6.10;;
31836;SDS011;18401;49.344;6.240;2023-02-24T15:28:59;14.00;;;6.90;;
31836;SDS011;18401;49.344;6.240;2023-02-24T15:31:28;13.48;;;6.40;;
31836;SDS011;18401;49.344;6.240;2023-02-24T15:33:57;14.02;;;6.55;;
31836;SDS011;18401;49.344;6.240;2023-02-24T15:36:32;15.05;;;6.05;;
31836;SDS011;18401;49.344;6.240;2023-02-24T15:39:15;10.35;;;6.15;;
31836;SDS011;18401;49.344;6.240;2023-02-24T15:41:46;10.45;;;5.55;;
31836;SDS011;18401;49.344;6.240;2023-02-24T15:44:26;11.38;;;5.90;;
31836;SDS011;18401;49.344;6.240;2023-02-24T15:46:54;12.73;;;6.68;;
31836;SDS011;18401;49.344;6.240;2023-02-24T15:49:20;12.57;;;6.43;;
31836;SDS011;18401;49.344;6.240;2023-02-24T15:51:47;14.20;;;6.07;;
31836;SDS011;18401;49.344;6.240;2023-02-24T15:56:56;13.48;;;6.20;;
31836;SDS011;18401;49.344;6.240;2023-02-24T15:59:23;14.82;;;6.32;;
31836;SDS011;18401;49.344;6.240;2023-02-24T16:01:49;11.88;;;6.00;;
31836;SDS011;18401;49.344;6.240;2023-02-24T16:04:16;14.20;;;6.97;;
31836;SDS011;18401;49.344;6.240;2023-02-24T16:06:42;11.82;;;5.85;;
31836;SDS011;18401;49.344;6.240;2023-02-24T16:09:18;10.38;;;5.18;;
31836;SDS011;18401;49.344;6.240;2023-02-24T16:12:16;11.65;;;5.50;;
31836;SDS011;18401;49.344;6.240;2023-02-24T16:14:44;11.55;;;5.30;;
31836;SDS011;18401;49.344;6.240;2023-02-24T16:17:57;14.38;;;5.82;;
31836;SDS011;18401;49.344;6.240;2023-02-24T16:20:00;12.20;;;5.60;;
31836;SDS011;18401;49.344;6.240;2023-02-24T16:22:27;9.45;;;4.70;;
31836;SDS011;18401;49.344;6.240;2023-02-24T16:24:53;15.07;;;5.88;;
31836;SDS011;18401;49.344;6.240;2023-02-24T16:27:20;13.65;;;5.75;;
31836;SDS011;18401;49.344;6.240;2023-02-24T16:29:47;13.10;;;5.45;;
31836;SDS011;18401;49.344;6.240;2023-02-24T16:32:14;11.77;;;5.55;;
31836;SDS011;18401;49.344;6.240;2023-02-24T16:34:40;9.82;;;5.00;;
31836;SDS011;18401;49.344;6.240;2023-02-24T16:37:16;13.32;;;5.25;;
31836;SDS011;18401;49.344;6.240;2023-02-24T16:39:47;10.98;;;4.80;;
31836;SDS011;18401;49.344;6.240;2023-02-24T16:42:14;14.15;;;6.50;;
31836;SDS011;18401;49.344;6.240;2023-02-24T16:44:40;9.80;;;5.25;;
31836;SDS011;18401;49.344;6.240;2023-02-24T16:47:06;9.10;;;4.78;;
31836;SDS011;18401;49.344;6.240;2023-02-24T16:49:36;13.38;;;5.07;;
31836;SDS011;18401;49.344;6.240;2023-02-24T16:52:02;12.27;;;5.43;;
31836;SDS011;18401;49.344;6.240;2023-02-24T16:54:28;11.02;;;4.82;;
31836;SDS011;18401;49.344;6.240;2023-02-24T16:56:54;10.93;;;5.38;;
31836;SDS011;18401;49.344;6.240;2023-02-24T16:59:20;9.40;;;4.90;;
31836;SDS011;18401;49.344;6.240;2023-02-24T17:01:46;13.35;;;5.63;;
31836;SDS011;18401;49.344;6.240;2023-02-24T17:04:12;10.40;;;4.95;;
31836;SDS011;18401;49.344;6.240;2023-02-24T17:06:38;9.63;;;4.55;;
31836;SDS011;18401;49.344;6.240;2023-02-24T17:09:05;14.35;;;4.75;;
31836;SDS011;18401;49.344;6.240;2023-02-24T17:11:30;12.55;;;4.90;;
31836;SDS011;18401;49.344;6.240;2023-02-24T17:13:57;12.65;;;5.90;;
31836;SDS011;18401;49.344;6.240;2023-02-24T17:16:23;12.43;;;5.30;;
31836;SDS011;18401;49.344;6.240;2023-02-24T17:18:48;13.85;;;5.53;;
31836;SDS011;18401;49.344;6.240;2023-02-24T17:21:14;9.15;;;4.53;;
31836;SDS011;18401;49.344;6.240;2023-02-24T17:23:42;11.70;;;5.28;;
31836;SDS011;18401;49.344;6.240;2023-02-24T17:26:08;13.02;;;5.13;;
31836;SDS011;18401;49.344;6.240;2023-02-24T17:28:37;13.82;;;5.50;;
31836;SDS011;18401;49.344;6.240;2023-02-24T17:31:03;11.77;;;5.57;;
31836;SDS011;18401;49.344;6.240;2023-02-24T17:33:31;12.73;;;5.22;;
31836;SDS011;18401;49.344;6.240;2023-02-24T17:35:57;10.77;;;4.85;;
31836;SDS011;18401;49.344;6.240;2023-02-24T17:38:23;10.88;;;4.78;;
31836;SDS011;18401;49.344;6.240;2023-02-24T17:40:50;12.68;;;5.10;;
31836;SDS011;18401;49.344;6.240;2023-02-24T17:43:16;13.60;;;5.03;;
31836;SDS011;18401;49.344;6.240;2023-02-24T17:45:43;13.75;;;6.20;;
31836;SDS011;18401;49.344;6.240;2023-02-24T17:48:10;13.20;;;5.50;;
31836;SDS011;18401;49.344;6.240;2023-02-24T17:50:41;10.10;;;5.38;;
31836;SDS011;18401;49.344;6.240;2023-02-24T17:53:08;12.20;;;5.60;;
31836;SDS011;18401;49.344;6.240;2023-02-24T17:55:33;14.85;;;6.22;;
31836;SDS011;18401;49.344;6.240;2023-02-24T17:57:59;18.73;;;7.60;;
31836;SDS011;18401;49.344;6.240;2023-02-24T18:00:25;12.88;;;5.25;;
31836;SDS011;18401;49.344;6.240;2023-02-24T18:02:52;11.70;;;5.65;;
31836;SDS011;18401;49.344;6.240;2023-02-24T18:05:18;19.02;;;6.45;;
31836;SDS011;18401;49.344;6.240;2023-02-24T18:07:43;16.15;;;6.78;;
31836;SDS011;18401;49.344;6.240;2023-02-24T18:10:09;30.92;;;12.77;;
31836;SDS011;18401;49.344;6.240;2023-02-24T18:12:35;10.50;;;5.68;;
31836;SDS011;18401;49.344;6.240;2023-02-24T18:15:02;11.70;;;4.90;;
31836;SDS011;18401;49.344;6.240;2023-02-24T18:17:28;10.93;;;5.32;;
31836;SDS011;18401;49.344;6.240;2023-02-24T18:19:54;9.82;;;4.38;;
31836;SDS011;18401;49.344;6.240;2023-02-24T18:22:20;12.70;;;5.45;;
31836;SDS011;18401;49.344;6.240;2023-02-24T18:24:46;8.48;;;4.97;;
31836;SDS011;18401;49.344;6.240;2023-02-24T18:27:11;9.23;;;4.60;;
31836;SDS011;18401;49.344;6.240;2023-02-24T18:29:37;14.55;;;4.68;;
31836;SDS011;18401;49.344;6.240;2023-02-24T18:32:03;7.40;;;3.85;;
31836;SDS011;18401;49.344;6.240;2023-02-24T18:34:29;6.22;;;4.13;;
31836;SDS011;18401;49.344;6.240;2023-02-24T18:36:55;7.38;;;4.40;;
31836;SDS011;18401;49.344;6.240;2023-02-24T18:39:20;15.13;;;4.88;;
31836;SDS011;18401;49.344;6.240;2023-02-24T18:41:46;8.05;;;4.72;;
31836;SDS011;18401;49.344;6.240;2023-02-24T18:44:12;9.40;;;4.30;;
31836;SDS011;18401;49.344;6.240;2023-02-24T18:46:38;13.48;;;5.97;;